createdAt,value
2018-06-03T00:00:11.867Z,51.17
2018-06-03T00:02:41.696Z,48.20
2018-06-03T00:05:09.160Z,47.37
2018-06-03T00:07:36.513Z,48.63
2018-06-03T00:10:03.854Z,48.13
2018-06-03T00:12:30.501Z,49.07
2018-06-03T00:14:58.891Z,49.80
2018-06-03T00:17:29.672Z,51.30
2018-06-03T00:20:00.278Z,49.80
2018-06-03T00:22:29.984Z,50.80
2018-06-03T00:24:59.671Z,51.87
2018-06-03T00:27:27.569Z,49.27
2018-06-03T00:29:57.416Z,49.17
2018-06-03T00:32:25.564Z,47.77
2018-06-03T00:34:52.544Z,51.50
2018-06-03T00:37:23.428Z,49.37
2018-06-03T00:39:54.808Z,47.97
2018-06-03T00:42:22.420Z,50.07
2018-06-03T00:44:49.093Z,48.70
2018-06-03T00:47:19.740Z,50.60
2018-06-03T00:49:49.505Z,51.43
2018-06-03T00:52:18.263Z,50.83
2018-06-03T00:54:54.470Z,49.93
2018-06-03T00:57:24.141Z,50.90
2018-06-03T00:59:53.863Z,48.70
2018-06-03T01:02:21.302Z,47.37
2018-06-03T01:04:49.691Z,45.47
2018-06-03T01:07:17.767Z,46.07
2018-06-03T01:09:45.589Z,44.20
2018-06-03T01:12:12.089Z,47.60
2018-06-03T01:14:39.957Z,48.10
2018-06-03T01:20:08.139Z,45.40
2018-06-03T01:22:39.111Z,46.67
2018-06-03T01:25:06.187Z,50.10
2018-06-03T01:27:33.752Z,48.90
2018-06-03T01:30:01.999Z,50.10
2018-06-03T01:32:28.980Z,48.10
2018-06-03T01:34:56.386Z,48.07
2018-06-03T01:37:26.400Z,43.23
2018-06-03T01:42:33.337Z,45.13
2018-06-03T01:45:04.617Z,42.13
2018-06-03T01:47:32.063Z,45.40
2018-06-03T01:49:59.149Z,44.47
2018-06-03T01:52:28.470Z,44.47
2018-06-03T01:54:57.484Z,42.90
2018-06-03T01:57:24.943Z,35.37
2018-06-03T01:59:52.193Z,40.60
2018-06-03T02:02:21.594Z,43.27
2018-06-03T02:04:56.469Z,41.27
2018-06-03T02:07:24.541Z,43.50
2018-06-03T02:09:52.281Z,41.17
2018-06-03T02:14:57.344Z,37.97
2018-06-03T02:17:25.393Z,41.67
2018-06-03T02:19:54.911Z,38.53
2018-06-03T02:22:27.469Z,40.07
2018-06-03T02:24:59.737Z,40.87
2018-06-03T02:27:26.930Z,43.57
2018-06-03T02:29:55.645Z,42.47
2018-06-03T02:32:23.398Z,43.20
2018-06-03T02:34:52.889Z,37.77
2018-06-03T02:37:22.078Z,44.37
2018-06-03T02:39:51.317Z,43.40
2018-06-03T02:42:19.988Z,45.07
2018-06-03T02:44:49.833Z,49.30
2018-06-03T02:47:18.305Z,47.63
2018-06-03T02:49:47.049Z,47.33
2018-06-03T02:52:19.619Z,46.30
2018-06-03T02:54:56.485Z,46.87
2018-06-03T02:57:28.764Z,46.03
2018-06-03T02:59:56.548Z,43.37
2018-06-03T03:02:31.877Z,45.33
2018-06-03T03:05:00.011Z,47.27
2018-06-03T03:07:30.479Z,44.63
2018-06-03T03:09:58.709Z,46.93
2018-06-03T03:12:28.990Z,46.47
2018-06-03T03:14:59.400Z,45.93
2018-06-03T03:17:26.664Z,49.37
2018-06-03T03:20:00.715Z,49.67
2018-06-03T03:25:04.815Z,52.60
2018-06-03T03:27:32.496Z,51.13
2018-06-03T03:30:04.256Z,51.20
2018-06-03T03:32:35.687Z,50.10
2018-06-03T03:35:05.111Z,49.93
2018-06-03T03:40:11.731Z,48.37
2018-06-03T03:42:40.294Z,51.20
2018-06-03T03:45:07.735Z,52.20
2018-06-03T03:47:38.172Z,50.30
2018-06-03T03:50:09.190Z,46.20
2018-06-03T03:55:15.809Z,43.30
2018-06-03T03:57:44.449Z,40.80
2018-06-03T04:00:19.923Z,46.13
2018-06-03T04:02:49.923Z,50.03
2018-06-03T04:05:20.271Z,50.30
2018-06-03T04:07:48.058Z,49.13
2018-06-03T04:10:23.356Z,50.60
2018-06-03T04:12:52.502Z,50.37
2018-06-03T04:15:23.719Z,52.30
2018-06-03T04:17:53.763Z,56.70
2018-06-03T04:21:31.453Z,56.63
2018-06-03T04:24:00.553Z,54.27
2018-06-03T04:26:28.435Z,46.50
2018-06-03T04:28:59.556Z,53.20
2018-06-03T04:31:26.018Z,51.07
2018-06-03T04:34:01.596Z,48.40
2018-06-03T04:36:31.040Z,47.77
2018-06-03T04:38:58.104Z,46.57
2018-06-03T04:41:30.056Z,53.27
2018-06-03T04:44:05.897Z,51.03
2018-06-03T04:46:38.501Z,54.63
2018-06-03T04:49:06.896Z,51.20
2018-06-03T04:51:34.894Z,52.70
2018-06-03T04:54:04.254Z,53.43
2018-06-03T04:56:33.459Z,54.37
2018-06-03T04:59:02.303Z,46.70
2018-06-03T05:04:11.446Z,52.43
2018-06-03T05:49:11.256Z,40.43
2018-06-03T05:51:40.393Z,41.57
2018-06-03T05:54:07.369Z,40.50
2018-06-03T05:56:35.102Z,37.27
2018-06-03T06:01:44.336Z,36.70
2018-06-03T06:06:47.518Z,37.33
2018-06-03T06:09:23.763Z,34.80
2018-06-03T06:11:53.743Z,38.90
2018-06-03T06:14:25.455Z,38.20
2018-06-03T06:16:55.603Z,39.03
2018-06-03T06:19:25.030Z,38.63
2018-06-03T06:21:53.135Z,38.50
2018-06-03T06:24:24.673Z,37.37
2018-06-03T06:26:51.619Z,36.80
2018-06-03T06:29:20.412Z,38.97
2018-06-03T06:31:48.795Z,40.53
2018-06-03T06:34:19.226Z,32.43
2018-06-03T06:36:47.533Z,35.47
2018-06-03T06:39:18.030Z,32.13
2018-06-03T06:41:47.767Z,34.20
2018-06-03T06:44:16.152Z,33.10
2018-06-03T06:46:48.493Z,35.40
2018-06-03T06:49:27.862Z,34.97
2018-06-03T06:51:59.301Z,40.10
2018-06-03T06:54:28.501Z,36.20
2018-06-03T06:56:58.730Z,36.50
2018-06-03T07:02:19.686Z,33.10
2018-06-03T07:07:27.411Z,31.70
2018-06-03T07:10:00.109Z,33.17
2018-06-03T07:12:29.453Z,32.00
2018-06-03T07:15:09.549Z,33.17
2018-06-03T07:17:46.956Z,29.87
2018-06-03T07:20:21.724Z,31.50
2018-06-03T07:22:52.853Z,32.37
2018-06-03T07:25:23.752Z,31.90
2018-06-03T07:28:10.169Z,31.63
2018-06-03T07:30:42.612Z,31.47
2018-06-03T07:33:09.884Z,29.30
2018-06-03T07:35:36.375Z,28.10
2018-06-03T07:38:03.041Z,30.10
2018-06-03T07:40:29.592Z,29.30
2018-06-03T07:42:58.220Z,30.30
2018-06-03T07:45:29.240Z,26.83
2018-06-03T07:47:56.015Z,29.87
2018-06-03T07:50:22.858Z,28.27
2018-06-03T07:52:51.403Z,29.87
2018-06-03T07:55:17.926Z,28.10
2018-06-03T07:57:48.966Z,27.10
2018-06-03T08:00:27.153Z,30.13
2018-06-03T08:02:57.439Z,28.63
2018-06-03T08:05:28.089Z,29.70
2018-06-03T08:08:00.471Z,31.27
2018-06-03T08:15:50.148Z,30.40
2018-06-03T08:18:21.628Z,29.23
2018-06-03T08:20:58.596Z,28.67
2018-06-03T08:26:20.273Z,28.80
2018-06-03T08:28:51.913Z,30.40
2018-06-03T08:31:25.030Z,31.20
2018-06-03T08:34:04.018Z,29.00
2018-06-03T08:36:38.071Z,27.80
2018-06-03T08:39:07.754Z,26.90
2018-06-03T08:41:38.291Z,30.20
2018-06-03T08:46:41.086Z,29.57
2018-06-03T08:49:10.738Z,29.00
2018-06-03T08:51:40.187Z,28.50
2018-06-03T08:54:19.170Z,29.60
2018-06-03T08:56:49.718Z,27.60
2018-06-03T09:02:01.515Z,29.80
2018-06-03T09:04:31.020Z,28.60
2018-06-03T09:07:06.789Z,31.60
2018-06-03T09:09:38.547Z,31.23
2018-06-03T09:12:08.648Z,31.60
2018-06-03T09:14:40.016Z,30.67
2018-06-03T09:17:12.929Z,31.13
2018-06-03T09:19:41.466Z,30.73
2018-06-03T09:22:10.706Z,32.70
2018-06-03T09:24:44.932Z,27.60
2018-06-03T09:27:17.787Z,29.83
2018-06-03T09:29:46.459Z,29.33
2018-06-03T09:32:20.438Z,29.40
2018-06-03T09:34:49.874Z,30.43
2018-06-03T09:37:17.219Z,31.20
2018-06-03T09:39:50.705Z,30.17
2018-06-03T09:42:20.732Z,33.37
2018-06-03T09:47:23.120Z,34.30
2018-06-03T09:49:56.986Z,31.20
2018-06-03T09:52:30.531Z,31.90
2018-06-03T09:54:59.327Z,31.00
2018-06-03T09:57:29.865Z,33.97
2018-06-03T09:59:59.417Z,35.00
2018-06-03T10:02:28.857Z,36.80
2018-06-03T10:05:01.145Z,34.67
2018-06-03T10:07:29.925Z,35.83
2018-06-03T10:09:59.148Z,35.97
2018-06-03T10:15:06.112Z,36.90
2018-06-03T10:17:37.194Z,35.80
2018-06-03T10:20:09.897Z,38.67
2018-06-03T10:22:50.402Z,35.90
2018-06-03T10:25:18.039Z,38.50
2018-06-03T10:27:45.914Z,31.37
2018-06-03T10:30:13.985Z,37.00
2018-06-03T10:32:41.763Z,39.87
2018-06-03T10:35:10.785Z,35.00
2018-06-03T10:37:39.463Z,38.30
2018-06-03T10:40:06.932Z,37.27
2018-06-03T10:42:35.539Z,33.80
2018-06-03T10:45:02.949Z,34.50
2018-06-03T10:47:33.982Z,35.53
2018-06-03T10:50:02.113Z,33.90
2018-06-03T10:52:38.340Z,33.43
2018-06-03T10:55:09.046Z,33.20
2018-06-03T11:05:48.700Z,33.27
2018-06-03T11:08:21.618Z,29.77
2018-06-03T11:10:50.325Z,32.20
2018-06-03T11:13:20.348Z,29.10
2018-06-03T11:18:33.552Z,25.73
2018-06-03T11:21:05.343Z,24.80
2018-06-03T11:23:35.947Z,24.83
2018-06-03T11:26:03.548Z,22.90
2018-06-03T11:28:31.806Z,22.17
2018-06-03T11:36:12.209Z,24.50
2018-06-03T11:38:53.513Z,22.60
2018-06-03T11:41:26.210Z,22.53
2018-06-03T11:44:02.985Z,21.23
2018-06-03T11:46:34.101Z,22.00
2018-06-03T11:49:02.529Z,19.70
2018-06-03T11:51:35.411Z,22.77
2018-06-03T11:54:09.239Z,19.83
2018-06-03T11:56:49.029Z,21.33
2018-06-03T11:59:25.612Z,24.70
2018-06-03T12:01:52.805Z,23.07
2018-06-03T12:04:20.697Z,23.60
2018-06-03T12:06:57.501Z,24.20
2018-06-03T12:12:02.797Z,22.80
2018-06-03T12:14:37.530Z,24.00
2018-06-03T12:17:15.241Z,25.60
2018-06-03T12:22:26.538Z,24.87
2018-06-03T12:24:58.708Z,24.47
2018-06-03T12:30:08.605Z,22.60
2018-06-03T12:32:37.967Z,23.57
2018-06-03T12:35:13.133Z,23.93
2018-06-03T12:37:53.314Z,23.20
2018-06-03T12:40:26.240Z,21.60
2018-06-03T12:48:52.747Z,23.67
2018-06-03T12:54:23.926Z,22.63
2018-06-03T12:56:59.436Z,20.87
2018-06-03T12:59:37.674Z,23.83
2018-06-03T13:02:10.456Z,23.20
2018-06-03T13:10:02.235Z,20.90
2018-06-03T13:12:30.304Z,20.77
2018-06-03T13:14:59.660Z,20.73
2018-06-03T13:17:26.869Z,22.10
2018-06-03T13:19:56.973Z,21.27
2018-06-03T13:22:25.360Z,20.80
2018-06-03T13:24:54.657Z,23.80
2018-06-03T13:27:22.571Z,22.53
2018-06-03T13:32:24.551Z,23.70
2018-06-03T13:34:51.323Z,22.97
2018-06-03T13:37:18.864Z,24.17
2018-06-03T13:39:45.264Z,23.70
2018-06-03T13:42:11.923Z,23.87
2018-06-03T13:44:38.385Z,23.23
2018-06-03T13:47:04.933Z,22.20
2018-06-03T13:49:31.410Z,22.13
2018-06-03T13:51:58.343Z,24.83
2018-06-03T13:54:25.980Z,23.80
2018-06-03T13:56:52.659Z,23.37
2018-06-03T13:59:19.392Z,24.83
2018-06-03T14:01:46.035Z,23.43
2018-06-03T14:04:13.660Z,21.60
2018-06-03T14:06:41.494Z,23.13
2018-06-03T14:09:11.232Z,22.50
2018-06-03T14:11:43.299Z,23.17
2018-06-03T14:14:11.084Z,23.27
2018-06-03T14:16:41.693Z,25.07
2018-06-03T14:19:12.557Z,23.30
2018-06-03T14:21:41.601Z,23.87
2018-06-03T14:24:13.946Z,24.77
2018-06-03T14:26:42.674Z,23.77
2018-06-03T14:29:13.822Z,25.30
2018-06-03T14:31:42.132Z,24.97
2018-06-03T14:34:09.416Z,21.73
2018-06-03T14:36:36.277Z,22.30
2018-06-03T14:39:05.802Z,23.17
2018-06-03T14:41:33.043Z,21.77
2018-06-03T14:44:00.965Z,22.23
2018-06-03T14:46:29.214Z,21.07
2018-06-03T14:48:56.374Z,22.60
2018-06-03T14:51:23.649Z,21.33
2018-06-03T14:53:51.301Z,21.80
2018-06-03T14:56:18.450Z,21.30
2018-06-03T14:58:45.037Z,21.03
2018-06-03T15:01:12.883Z,19.70
2018-06-03T15:03:40.861Z,20.67
2018-06-03T15:06:08.187Z,20.13
2018-06-03T15:08:35.649Z,20.33
2018-06-03T15:11:02.513Z,17.70
2018-06-03T15:13:30.208Z,20.70
2018-06-03T15:15:58.349Z,19.00
2018-06-03T15:18:26.965Z,20.20
2018-06-03T15:20:54.321Z,19.43
2018-06-03T15:23:23.100Z,21.27
2018-06-03T15:25:52.405Z,18.17
2018-06-03T15:28:18.947Z,21.07
2018-06-03T15:30:49.894Z,19.07
2018-06-03T15:33:21.416Z,19.83
2018-06-03T15:35:48.521Z,18.30
2018-06-03T15:38:16.126Z,17.57
2018-06-03T15:40:44.235Z,19.00
2018-06-03T15:43:13.813Z,20.47
2018-06-03T15:45:46.356Z,20.07
2018-06-03T15:48:15.632Z,19.03
2018-06-03T15:50:44.913Z,19.90
2018-06-03T15:53:12.045Z,18.40
2018-06-03T15:55:40.900Z,17.57
2018-06-03T15:58:10.072Z,18.90
2018-06-03T16:00:45.249Z,17.87
2018-06-03T16:03:16.701Z,17.73
2018-06-03T16:05:44.355Z,18.07
2018-06-03T16:08:21.972Z,18.90
2018-06-03T16:10:55.559Z,18.23
2018-06-03T16:13:24.196Z,15.70
2018-06-03T16:15:54.732Z,18.90
2018-06-03T16:18:25.384Z,16.73
2018-06-03T16:20:53.730Z,20.23
2018-06-03T16:23:20.620Z,17.70
2018-06-03T16:25:49.498Z,19.40
2018-06-03T16:28:19.652Z,17.90
2018-06-03T16:30:50.811Z,17.77
2018-06-03T16:33:29.723Z,19.10
2018-06-03T16:38:39.364Z,19.40
2018-06-03T16:41:10.336Z,18.87
2018-06-03T16:43:43.461Z,18.90
2018-06-03T16:46:14.763Z,19.70
2018-06-03T16:48:45.336Z,20.13
2018-06-03T16:51:18.526Z,18.60
2018-06-03T16:56:24.589Z,17.70
2018-06-03T16:58:52.865Z,18.50
2018-06-03T17:01:27.975Z,19.00
2018-06-03T17:03:59.596Z,19.10
2018-06-03T17:06:32.826Z,21.03
2018-06-03T17:09:02.613Z,18.87
2018-06-03T17:11:32.518Z,19.13
2018-06-03T17:16:44.040Z,17.70
2018-06-03T17:19:15.876Z,18.70
2018-06-03T17:21:58.907Z,18.70
2018-06-03T17:29:37.569Z,19.13
2018-06-03T17:34:45.482Z,18.80
2018-06-03T17:37:15.529Z,18.57
2018-06-03T17:39:48.169Z,18.67
2018-06-03T17:42:18.764Z,18.57
2018-06-03T17:44:45.828Z,18.70
2018-06-03T17:47:13.818Z,17.90
2018-06-03T17:49:45.803Z,17.87
2018-06-03T17:52:23.139Z,19.47
2018-06-03T17:54:51.812Z,20.27
2018-06-03T17:57:21.441Z,18.37
2018-06-03T18:02:26.144Z,18.57
2018-06-03T18:04:55.288Z,18.80
2018-06-03T18:07:27.977Z,18.23
2018-06-03T18:09:57.760Z,19.23
2018-06-03T18:12:31.482Z,20.93
2018-06-03T18:15:01.814Z,20.10
2018-06-03T18:17:34.303Z,18.53
2018-06-03T18:20:06.473Z,19.60
2018-06-03T18:22:34.714Z,20.33
2018-06-03T18:25:05.743Z,21.73
2018-06-03T18:27:34.448Z,19.70
2018-06-03T18:30:04.884Z,22.60
2018-06-03T18:32:36.539Z,19.50
2018-06-03T18:35:03.201Z,19.93
2018-06-03T18:40:09.514Z,21.27
2018-06-03T18:42:39.648Z,19.33
2018-06-03T18:45:06.418Z,22.33
2018-06-03T18:47:35.125Z,22.23
2018-06-03T18:50:03.554Z,23.10
2018-06-03T18:52:33.267Z,23.33
2018-06-03T18:55:04.506Z,20.60
2018-06-03T18:57:34.896Z,21.97
2018-06-03T19:00:04.534Z,23.20
2018-06-03T19:02:34.493Z,23.53
2018-06-03T19:05:14.035Z,21.80
2018-06-03T19:15:27.931Z,23.67
2018-06-03T19:18:00.064Z,26.07
2018-06-03T19:20:30.865Z,23.60
2018-06-03T19:23:00.116Z,24.67
2018-06-03T19:25:28.504Z,26.07
2018-06-03T19:27:57.111Z,26.47
2018-06-03T19:30:27.924Z,24.83
2018-06-03T19:33:00.767Z,25.53
2018-06-03T19:35:35.022Z,25.83
2018-06-03T19:38:04.345Z,27.80
2018-06-03T19:45:51.054Z,29.73
2018-06-03T19:48:25.216Z,30.00
2018-06-03T19:53:35.820Z,31.37
2018-06-03T19:56:09.254Z,29.07
2018-06-03T19:58:38.579Z,30.00
2018-06-03T20:01:07.418Z,29.07
2018-06-03T20:06:15.875Z,32.37
2018-06-03T20:08:49.668Z,29.43
2018-06-03T20:11:27.665Z,31.67
2018-06-03T20:16:34.197Z,32.10
2018-06-03T20:32:30.620Z,33.47
2018-06-03T20:34:58.907Z,33.70
2018-06-03T20:37:29.681Z,34.27
2018-06-03T20:40:05.987Z,34.03
2018-06-03T20:42:33.313Z,32.77
2018-06-03T20:45:04.513Z,34.40
2018-06-03T20:47:37.464Z,35.87
2018-06-03T20:50:11.135Z,35.30
2018-06-03T20:55:32.271Z,34.60
2018-06-03T21:00:46.990Z,37.27
2018-06-03T21:05:51.302Z,37.87
2018-06-03T21:11:02.274Z,40.60
2018-06-03T21:13:34.044Z,40.47
2018-06-03T21:16:05.393Z,38.53
2018-06-03T21:18:45.415Z,38.93
2018-06-03T21:21:30.969Z,40.60
2018-06-03T21:24:07.683Z,40.73
2018-06-03T21:26:43.541Z,38.33
2018-06-03T21:29:18.253Z,38.53
2018-06-03T21:31:53.393Z,39.47
2018-06-03T21:34:24.854Z,40.23
2018-06-03T21:36:53.297Z,38.17
2018-06-03T21:39:23.864Z,37.93
2018-06-03T21:41:54.226Z,35.40
2018-06-03T21:47:12.616Z,35.93
2018-06-03T21:49:41.404Z,36.43
2018-06-03T21:52:11.129Z,35.70
2018-06-03T21:54:41.285Z,35.83
2018-06-03T21:57:10.237Z,35.80
2018-06-03T21:59:40.089Z,36.70
2018-06-03T22:02:07.547Z,36.80
2018-06-03T22:04:37.461Z,38.10
2018-06-03T22:07:09.499Z,37.23
2018-06-03T22:09:36.859Z,35.77
2018-06-03T22:12:11.241Z,35.37
2018-06-03T22:14:40.945Z,34.63
2018-06-03T22:17:16.132Z,34.73
2018-06-03T22:19:46.998Z,33.13
2018-06-03T22:22:20.715Z,34.60
2018-06-03T22:24:52.280Z,35.80
2018-06-03T22:27:21.808Z,33.77
2018-06-03T22:29:54.569Z,35.60
2018-06-03T22:32:28.555Z,35.93
2018-06-03T22:34:55.967Z,35.80
2018-06-03T22:37:25.769Z,34.20
2018-06-03T22:42:36.187Z,35.40
2018-06-03T22:45:05.369Z,34.27
2018-06-03T22:47:40.712Z,36.90
2018-06-03T22:50:09.081Z,35.30
2018-06-03T22:55:25.078Z,34.57
2018-06-03T22:57:55.500Z,35.90
2018-06-03T23:00:25.668Z,35.63
2018-06-03T23:02:55.916Z,36.47
2018-06-03T23:05:24.975Z,36.30
2018-06-03T23:07:52.032Z,37.10
2018-06-03T23:12:58.255Z,38.50
2018-06-03T23:15:25.641Z,39.37
2018-06-03T23:17:57.251Z,40.37
2018-06-03T23:20:26.044Z,38.53
2018-06-03T23:22:52.499Z,38.00
2018-06-03T23:25:20.585Z,38.17
2018-06-03T23:27:48.422Z,38.10
2018-06-03T23:30:15.050Z,42.13
2018-06-03T23:32:43.754Z,41.87
2018-06-03T23:35:15.825Z,41.10
2018-06-03T23:37:44.755Z,42.23
2018-06-03T23:40:12.807Z,41.70
2018-06-03T23:42:42.469Z,39.93
2018-06-03T23:45:16.996Z,44.03
2018-06-03T23:47:46.231Z,43.67
2018-06-03T23:50:19.377Z,42.00
2018-06-03T23:52:54.632Z,42.87
2018-06-03T23:55:27.053Z,42.60
2018-06-03T23:57:54.528Z,40.97
